sensor_id;sensor_type;location;lat;lon;timestamp;temperature;humidity
44215;DHT22;29884;47.450;19.124;2024-01-16T00:00:33;1.50;99.90
44215;DHT22;29884;47.450;19.124;2024-01-16T00:02:59;1.60;99.90
44215;DHT22;29884;47.450;19.124;2024-01-16T00:05:25;1.60;99.90
44215;DHT22;29884;47.450;19.124;2024-01-16T00:07:50;1.60;99.90
44215;DHT22;29884;47.450;19.124;2024-01-16T00:10:16;1.60;99.90
44215;DHT22;29884;47.450;19.124;2024-01-16T00:12:42;1.50;99.90
44215;DHT22;29884;47.450;19.124;2024-01-16T00:15:08;1.60;99.90
44215;DHT22;29884;47.450;19.124;2024-01-16T00:17:34;1.60;99.90
44215;DHT22;29884;47.450;19.124;2024-01-16T00:20:00;1.60;99.90
44215;DHT22;29884;47.450;19.124;2024-01-16T00:22:29;1.60;99.90
44215;DHT22;29884;47.450;19.124;2024-01-16T00:24:55;1.60;99.90
44215;DHT22;29884;47.450;19.124;2024-01-16T00:27:20;1.60;99.90
44215;DHT22;29884;47.450;19.124;2024-01-16T00:29:46;1.60;99.90
44215;DHT22;29884;47.450;19.124;2024-01-16T00:32:12;1.50;99.90
44215;DHT22;29884;47.450;19.124;2024-01-16T00:34:41;1.60;99.90
44215;DHT22;29884;47.450;19.124;2024-01-16T00:37:07;1.60;99.90
44215;DHT22;29884;47.450;19.124;2024-01-16T00:39:32;1.50;99.90
44215;DHT22;29884;47.450;19.124;2024-01-16T00:41:58;1.40;99.90
44215;DHT22;29884;47.450;19.124;2024-01-16T00:44:24;1.30;99.90
44215;DHT22;29884;47.450;19.124;2024-01-16T00:46:50;1.20;99.90
44215;DHT22;29884;47.450;19.124;2024-01-16T00:49:15;1.20;99.90
44215;DHT22;29884;47.450;19.124;2024-01-16T00:51:41;1.10;99.90
44215;DHT22;29884;47.450;19.124;2024-01-16T00:54:06;1.10;99.90
44215;DHT22;29884;47.450;19.124;2024-01-16T00:56:36;1.00;99.90
44215;DHT22;29884;47.450;19.124;2024-01-16T00:59:02;1.10;99.90
44215;DHT22;29884;47.450;19.124;2024-01-16T01:01:28;1.10;99.90
44215;DHT22;29884;47.450;19.124;2024-01-16T01:03:53;1.10;99.90
44215;DHT22;29884;47.450;19.124;2024-01-16T01:06:19;1.20;99.90
44215;DHT22;29884;47.450;19.124;2024-01-16T01:08:45;1.20;99.90
44215;DHT22;29884;47.450;19.124;2024-01-16T01:11:11;1.30;99.90
44215;DHT22;29884;47.450;19.124;2024-01-16T01:13:37;1.40;99.90
44215;DHT22;29884;47.450;19.124;2024-01-16T01:16:03;1.50;99.90
44215;DHT22;29884;47.450;19.124;2024-01-16T01:18:29;1.50;99.90
44215;DHT22;29884;47.450;19.124;2024-01-16T01:20:54;1.60;99.90
44215;DHT22;29884;47.450;19.124;2024-01-16T01:23:20;1.60;99.90
44215;DHT22;29884;47.450;19.124;2024-01-16T01:25:45;1.60;99.90
44215;DHT22;29884;47.450;19.124;2024-01-16T01:28:11;1.50;99.90
44215;DHT22;29884;47.450;19.124;2024-01-16T01:30:37;1.50;99.90
44215;DHT22;29884;47.450;19.124;2024-01-16T01:33:03;1.50;99.90
44215;DHT22;29884;47.450;19.124;2024-01-16T01:35:29;1.50;99.90
44215;DHT22;29884;47.450;19.124;2024-01-16T01:37:54;1.50;99.90
44215;DHT22;29884;47.450;19.124;2024-01-16T01:40:20;1.60;99.90
44215;DHT22;29884;47.450;19.124;2024-01-16T01:42:46;1.70;99.90
44215;DHT22;29884;47.450;19.124;2024-01-16T01:45:12;1.70;99.90
44215;DHT22;29884;47.450;19.124;2024-01-16T01:47:39;1.60;99.90
44215;DHT22;29884;47.450;19.124;2024-01-16T01:50:06;1.70;99.90
44215;DHT22;29884;47.450;19.124;2024-01-16T01:52:33;1.70;99.90
44215;DHT22;29884;47.450;19.124;2024-01-16T01:54:59;1.70;99.90
44215;DHT22;29884;47.450;19.124;2024-01-16T01:57:27;1.70;99.90
44215;DHT22;29884;47.450;19.124;2024-01-16T01:59:52;1.60;99.90
44215;DHT22;29884;47.450;19.124;2024-01-16T02:02:19;1.60;99.90
44215;DHT22;29884;47.450;19.124;2024-01-16T02:04:46;1.60;99.90
44215;DHT22;29884;47.450;19.124;2024-01-16T02:07:12;1.50;99.90
44215;DHT22;29884;47.450;19.124;2024-01-16T02:09:38;1.60;99.90
44215;DHT22;29884;47.450;19.124;2024-01-16T02:12:04;1.50;99.90
44215;DHT22;29884;47.450;19.124;2024-01-16T02:14:30;1.50;99.90
44215;DHT22;29884;47.450;19.124;2024-01-16T02:16:56;1.50;99.90
44215;DHT22;29884;47.450;19.124;2024-01-16T02:19:21;1.50;99.90
44215;DHT22;29884;47.450;19.124;2024-01-16T02:21:48;1.50;99.90
44215;DHT22;29884;47.450;19.124;2024-01-16T02:24:15;1.40;99.90
44215;DHT22;29884;47.450;19.124;2024-01-16T02:26:41;1.30;99.90
44215;DHT22;29884;47.450;19.124;2024-01-16T02:29:07;1.20;99.90
44215;DHT22;29884;47.450;19.124;2024-01-16T02:31:33;1.20;99.90
44215;DHT22;29884;47.450;19.124;2024-01-16T02:33:59;1.10;99.90
44215;DHT22;29884;47.450;19.124;2024-01-16T02:36:25;1.10;99.90
44215;DHT22;29884;47.450;19.124;2024-01-16T02:38:51;1.10;99.90
44215;DHT22;29884;47.450;19.124;2024-01-16T02:41:17;1.10;99.90
44215;DHT22;29884;47.450;19.124;2024-01-16T02:43:44;1.10;99.90
44215;DHT22;29884;47.450;19.124;2024-01-16T02:46:09;1.00;99.90
44215;DHT22;29884;47.450;19.124;2024-01-16T02:48:36;0.90;99.90
44215;DHT22;29884;47.450;19.124;2024-01-16T02:51:01;0.90;99.90
44215;DHT22;29884;47.450;19.124;2024-01-16T02:53:27;0.90;99.90
44215;DHT22;29884;47.450;19.124;2024-01-16T02:55:54;0.90;99.90
44215;DHT22;29884;47.450;19.124;2024-01-16T02:58:20;1.00;99.90
44215;DHT22;29884;47.450;19.124;2024-01-16T03:00:49;0.90;99.90
44215;DHT22;29884;47.450;19.124;2024-01-16T03:03:15;0.90;99.90
44215;DHT22;29884;47.450;19.124;2024-01-16T03:05:40;0.90;99.90
44215;DHT22;29884;47.450;19.124;2024-01-16T03:08:06;1.00;99.90
44215;DHT22;29884;47.450;19.124;2024-01-16T03:10:32;1.00;99.90
44215;DHT22;29884;47.450;19.124;2024-01-16T03:12:58;1.00;99.90
44215;DHT22;29884;47.450;19.124;2024-01-16T03:15:24;0.90;99.90
44215;DHT22;29884;47.450;19.124;2024-01-16T03:17:50;0.90;99.90
44215;DHT22;29884;47.450;19.124;2024-01-16T03:20:16;0.90;99.90
44215;DHT22;29884;47.450;19.124;2024-01-16T03:22:42;0.90;99.90
44215;DHT22;29884;47.450;19.124;2024-01-16T03:25:09;0.80;99.90
44215;DHT22;29884;47.450;19.124;2024-01-16T03:27:34;0.80;99.90
44215;DHT22;29884;47.450;19.124;2024-01-16T03:30:01;0.70;99.90
44215;DHT22;29884;47.450;19.124;2024-01-16T03:32:27;0.70;99.90
44215;DHT22;29884;47.450;19.124;2024-01-16T03:34:52;0.70;99.90
44215;DHT22;29884;47.450;19.124;2024-01-16T03:37:18;0.70;99.90
44215;DHT22;29884;47.450;19.124;2024-01-16T03:39:43;0.60;99.90
44215;DHT22;29884;47.450;19.124;2024-01-16T03:42:10;0.60;99.90
44215;DHT22;29884;47.450;19.124;2024-01-16T03:44:39;0.60;99.90
44215;DHT22;29884;47.450;19.124;2024-01-16T03:47:06;0.60;99.90
44215;DHT22;29884;47.450;19.124;2024-01-16T03:49:31;0.60;99.90
44215;DHT22;29884;47.450;19.124;2024-01-16T03:51:57;0.60;99.90
44215;DHT22;29884;47.450;19.124;2024-01-16T03:54:22;0.70;99.90
44215;DHT22;29884;47.450;19.124;2024-01-16T03:56:48;0.70;99.90
44215;DHT22;29884;47.450;19.124;2024-01-16T03:59:13;0.70;99.90
44215;DHT22;29884;47.450;19.124;2024-01-16T04:01:39;0.60;99.90
44215;DHT22;29884;47.450;19.124;2024-01-16T04:04:04;0.60;99.90
44215;DHT22;29884;47.450;19.124;2024-01-16T04:06:32;0.60;99.90
44215;DHT22;29884;47.450;19.124;2024-01-16T04:08:58;0.60;99.90
44215;DHT22;29884;47.450;19.124;2024-01-16T04:11:24;0.60;99.90
44215;DHT22;29884;47.450;19.124;2024-01-16T04:13:49;0.70;99.90
44215;DHT22;29884;47.450;19.124;2024-01-16T04:16:15;0.70;99.90
44215;DHT22;29884;47.450;19.124;2024-01-16T04:18:43;0.70;99.90
44215;DHT22;29884;47.450;19.124;2024-01-16T04:21:08;0.70;99.90
44215;DHT22;29884;47.450;19.124;2024-01-16T04:23:34;0.70;99.90
44215;DHT22;29884;47.450;19.124;2024-01-16T04:25:59;0.60;99.90
44215;DHT22;29884;47.450;19.124;2024-01-16T04:28:25;0.70;99.90
44215;DHT22;29884;47.450;19.124;2024-01-16T04:30:51;0.70;99.90
44215;DHT22;29884;47.450;19.124;2024-01-16T04:33:17;0.70;99.90
44215;DHT22;29884;47.450;19.124;2024-01-16T04:35:42;0.80;99.90
44215;DHT22;29884;47.450;19.124;2024-01-16T04:38:08;0.70;99.90
44215;DHT22;29884;47.450;19.124;2024-01-16T04:40:33;0.80;99.90
44215;DHT22;29884;47.450;19.124;2024-01-16T04:42:59;0.80;99.90
44215;DHT22;29884;47.450;19.124;2024-01-16T04:45:25;0.80;99.90
44215;DHT22;29884;47.450;19.124;2024-01-16T04:47:51;0.80;99.90
44215;DHT22;29884;47.450;19.124;2024-01-16T04:50:17;0.70;99.90
44215;DHT22;29884;47.450;19.124;2024-01-16T04:52:43;0.80;99.90
44215;DHT22;29884;47.450;19.124;2024-01-16T04:55:09;0.80;99.90
44215;DHT22;29884;47.450;19.124;2024-01-16T04:57:34;0.80;99.90
44215;DHT22;29884;47.450;19.124;2024-01-16T05:00:00;0.80;99.90
44215;DHT22;29884;47.450;19.124;2024-01-16T05:02:25;0.90;99.90
44215;DHT22;29884;47.450;19.124;2024-01-16T05:04:51;0.80;99.90
44215;DHT22;29884;47.450;19.124;2024-01-16T05:07:20;0.90;99.90
44215;DHT22;29884;47.450;19.124;2024-01-16T05:09:48;0.90;99.90
44215;DHT22;29884;47.450;19.124;2024-01-16T05:12:14;0.90;99.90
44215;DHT22;29884;47.450;19.124;2024-01-16T05:14:40;0.90;99.90
44215;DHT22;29884;47.450;19.124;2024-01-16T05:17:05;0.90;99.90
44215;DHT22;29884;47.450;19.124;2024-01-16T05:19:31;1.00;99.90
44215;DHT22;29884;47.450;19.124;2024-01-16T05:21:57;1.00;99.90
44215;DHT22;29884;47.450;19.124;2024-01-16T05:24:23;1.00;99.90
44215;DHT22;29884;47.450;19.124;2024-01-16T05:26:48;1.00;99.90
44215;DHT22;29884;47.450;19.124;2024-01-16T05:29:14;1.00;99.90
44215;DHT22;29884;47.450;19.124;2024-01-16T05:31:43;1.00;99.90
44215;DHT22;29884;47.450;19.124;2024-01-16T05:34:09;1.00;99.90
44215;DHT22;29884;47.450;19.124;2024-01-16T05:36:35;0.90;99.90
44215;DHT22;29884;47.450;19.124;2024-01-16T05:39:00;0.90;99.90
44215;DHT22;29884;47.450;19.124;2024-01-16T05:41:26;1.00;99.90
44215;DHT22;29884;47.450;19.124;2024-01-16T05:43:52;0.90;99.90
44215;DHT22;29884;47.450;19.124;2024-01-16T05:46:18;0.90;99.90
44215;DHT22;29884;47.450;19.124;2024-01-16T05:48:44;1.00;99.90
44215;DHT22;29884;47.450;19.124;2024-01-16T05:51:09;0.90;99.90
44215;DHT22;29884;47.450;19.124;2024-01-16T05:53:35;0.90;99.90
44215;DHT22;29884;47.450;19.124;2024-01-16T05:56:00;0.90;99.90
44215;DHT22;29884;47.450;19.124;2024-01-16T05:58:26;0.90;99.90
44215;DHT22;29884;47.450;19.124;2024-01-16T06:00:52;0.90;99.90
44215;DHT22;29884;47.450;19.124;2024-01-16T06:03:17;0.90;99.90
44215;DHT22;29884;47.450;19.124;2024-01-16T06:05:43;0.80;99.90
44215;DHT22;29884;47.450;19.124;2024-01-16T06:08:09;0.90;99.90
44215;DHT22;29884;47.450;19.124;2024-01-16T06:10:34;0.80;99.90
44215;DHT22;29884;47.450;19.124;2024-01-16T06:13:00;0.80;99.90
44215;DHT22;29884;47.450;19.124;2024-01-16T06:15:26;0.80;99.90
44215;DHT22;29884;47.450;19.124;2024-01-16T06:17:51;0.70;99.90
44215;DHT22;29884;47.450;19.124;2024-01-16T06:20:17;0.70;99.90
44215;DHT22;29884;47.450;19.124;2024-01-16T06:22:42;0.90;99.90
44215;DHT22;29884;47.450;19.124;2024-01-16T06:25:08;0.80;99.90
44215;DHT22;29884;47.450;19.124;2024-01-16T06:27:33;0.70;99.90
44215;DHT22;29884;47.450;19.124;2024-01-16T06:29:59;0.70;99.90
44215;DHT22;29884;47.450;19.124;2024-01-16T06:32:25;0.70;99.90
44215;DHT22;29884;47.450;19.124;2024-01-16T06:34:50;0.70;99.90
44215;DHT22;29884;47.450;19.124;2024-01-16T06:37:16;0.70;99.90
44215;DHT22;29884;47.450;19.124;2024-01-16T06:39:41;0.80;99.90
44215;DHT22;29884;47.450;19.124;2024-01-16T06:42:07;0.80;99.90
44215;DHT22;29884;47.450;19.124;2024-01-16T06:44:33;0.80;99.90
44215;DHT22;29884;47.450;19.124;2024-01-16T06:46:58;0.80;99.90
44215;DHT22;29884;47.450;19.124;2024-01-16T06:49:24;0.80;99.90
44215;DHT22;29884;47.450;19.124;2024-01-16T06:51:49;0.90;99.90
44215;DHT22;29884;47.450;19.124;2024-01-16T06:54:15;0.90;99.40
44215;DHT22;29884;47.450;19.124;2024-01-16T06:56:40;0.90;99.50
44215;DHT22;29884;47.450;19.124;2024-01-16T06:59:06;0.90;99.20
44215;DHT22;29884;47.450;19.124;2024-01-16T07:01:32;0.90;99.10
44215;DHT22;29884;47.450;19.124;2024-01-16T07:03:57;0.90;98.90
44215;DHT22;29884;47.450;19.124;2024-01-16T07:06:23;1.00;98.70
44215;DHT22;29884;47.450;19.124;2024-01-16T07:08:48;1.00;98.60
44215;DHT22;29884;47.450;19.124;2024-01-16T07:11:14;1.00;98.20
44215;DHT22;29884;47.450;19.124;2024-01-16T07:13:40;1.10;97.70
44215;DHT22;29884;47.450;19.124;2024-01-16T07:16:09;1.10;97.90
44215;DHT22;29884;47.450;19.124;2024-01-16T07:18:35;1.20;97.60
44215;DHT22;29884;47.450;19.124;2024-01-16T07:21:01;1.20;96.60
44215;DHT22;29884;47.450;19.124;2024-01-16T07:23:28;1.30;96.60
44215;DHT22;29884;47.450;19.124;2024-01-16T07:25:54;1.30;96.40
44215;DHT22;29884;47.450;19.124;2024-01-16T07:28:19;1.30;96.30
44215;DHT22;29884;47.450;19.124;2024-01-16T07:30:47;1.30;96.20
44215;DHT22;29884;47.450;19.124;2024-01-16T07:33:13;1.40;95.90
44215;DHT22;29884;47.450;19.124;2024-01-16T07:35:38;1.50;95.50
44215;DHT22;29884;47.450;19.124;2024-01-16T07:38:06;1.60;94.80
44215;DHT22;29884;47.450;19.124;2024-01-16T07:40:32;1.70;94.60
44215;DHT22;29884;47.450;19.124;2024-01-16T07:42:57;1.80;94.10
44215;DHT22;29884;47.450;19.124;2024-01-16T07:45:23;1.90;93.50
44215;DHT22;29884;47.450;19.124;2024-01-16T07:47:49;2.00;93.20
44215;DHT22;29884;47.450;19.124;2024-01-16T07:50:15;2.10;92.90
44215;DHT22;29884;47.450;19.124;2024-01-16T07:52:40;2.20;91.90
44215;DHT22;29884;47.450;19.124;2024-01-16T07:55:06;2.20;92.30
44215;DHT22;29884;47.450;19.124;2024-01-16T07:57:32;2.40;91.90
44215;DHT22;29884;47.450;19.124;2024-01-16T07:59:57;2.40;91.70
44215;DHT22;29884;47.450;19.124;2024-01-16T08:02:30;2.50;91.50
44215;DHT22;29884;47.450;19.124;2024-01-16T08:04:56;2.60;91.10
44215;DHT22;29884;47.450;19.124;2024-01-16T08:07:22;2.70;91.70
44215;DHT22;29884;47.450;19.124;2024-01-16T08:09:48;2.70;90.70
44215;DHT22;29884;47.450;19.124;2024-01-16T08:12:13;2.60;90.60
44215;DHT22;29884;47.450;19.124;2024-01-16T08:14:39;2.70;90.60
44215;DHT22;29884;47.450;19.124;2024-01-16T08:17:05;2.90;90.30
44215;DHT22;29884;47.450;19.124;2024-01-16T08:19:30;2.90;89.90
44215;DHT22;29884;47.450;19.124;2024-01-16T08:21:56;2.90;90.10
44215;DHT22;29884;47.450;19.124;2024-01-16T08:24:22;2.90;90.30
44215;DHT22;29884;47.450;19.124;2024-01-16T08:26:48;3.00;89.60
44215;DHT22;29884;47.450;19.124;2024-01-16T08:29:13;3.20;89.30
44215;DHT22;29884;47.450;19.124;2024-01-16T08:31:40;3.10;86.30
44215;DHT22;29884;47.450;19.124;2024-01-16T08:34:06;3.10;86.90
44215;DHT22;29884;47.450;19.124;2024-01-16T08:36:31;3.10;84.60
44215;DHT22;29884;47.450;19.124;2024-01-16T08:38:57;3.20;84.70
44215;DHT22;29884;47.450;19.124;2024-01-16T08:41:23;3.20;82.00
44215;DHT22;29884;47.450;19.124;2024-01-16T08:43:48;3.10;82.80
44215;DHT22;29884;47.450;19.124;2024-01-16T08:46:14;3.10;82.40
44215;DHT22;29884;47.450;19.124;2024-01-16T08:48:40;3.00;81.20
44215;DHT22;29884;47.450;19.124;2024-01-16T08:51:08;3.10;80.00
44215;DHT22;29884;47.450;19.124;2024-01-16T08:53:37;3.10;80.10
44215;DHT22;29884;47.450;19.124;2024-01-16T08:56:03;3.20;80.50
44215;DHT22;29884;47.450;19.124;2024-01-16T08:58:32;3.30;78.90
44215;DHT22;29884;47.450;19.124;2024-01-16T09:01:02;3.30;78.20
44215;DHT22;29884;47.450;19.124;2024-01-16T09:03:28;3.40;76.80
44215;DHT22;29884;47.450;19.124;2024-01-16T09:05:53;3.50;75.80
44215;DHT22;29884;47.450;19.124;2024-01-16T09:08:19;3.50;74.60
44215;DHT22;29884;47.450;19.124;2024-01-16T09:10:44;3.40;73.90
44215;DHT22;29884;47.450;19.124;2024-01-16T09:13:10;3.40;74.80
44215;DHT22;29884;47.450;19.124;2024-01-16T09:15:36;3.60;73.70
44215;DHT22;29884;47.450;19.124;2024-01-16T09:18:02;3.70;72.30
44215;DHT22;29884;47.450;19.124;2024-01-16T09:20:28;3.80;71.30
44215;DHT22;29884;47.450;19.124;2024-01-16T09:22:54;3.90;69.70
44215;DHT22;29884;47.450;19.124;2024-01-16T09:25:20;3.90;69.00
44215;DHT22;29884;47.450;19.124;2024-01-16T09:27:49;4.00;70.20
44215;DHT22;29884;47.450;19.124;2024-01-16T09:30:15;4.10;68.30
44215;DHT22;29884;47.450;19.124;2024-01-16T09:32:40;4.10;67.70
44215;DHT22;29884;47.450;19.124;2024-01-16T09:35:06;3.90;66.60
44215;DHT22;29884;47.450;19.124;2024-01-16T09:37:34;3.80;66.50
44215;DHT22;29884;47.450;19.124;2024-01-16T09:40:00;3.90;67.20
44215;DHT22;29884;47.450;19.124;2024-01-16T09:42:27;3.80;63.40
44215;DHT22;29884;47.450;19.124;2024-01-16T09:44:53;3.80;64.90
44215;DHT22;29884;47.450;19.124;2024-01-16T09:47:20;4.00;64.40
44215;DHT22;29884;47.450;19.124;2024-01-16T09:49:46;4.00;62.20
44215;DHT22;29884;47.450;19.124;2024-01-16T09:52:14;4.00;62.60
44215;DHT22;29884;47.450;19.124;2024-01-16T09:54:40;4.00;63.40
44215;DHT22;29884;47.450;19.124;2024-01-16T09:57:07;4.00;61.60
44215;DHT22;29884;47.450;19.124;2024-01-16T09:59:36;4.00;61.50
44215;DHT22;29884;47.450;19.124;2024-01-16T10:02:04;4.00;60.90
44215;DHT22;29884;47.450;19.124;2024-01-16T10:04:33;4.10;61.00
44215;DHT22;29884;47.450;19.124;2024-01-16T10:07:01;4.20;60.60
44215;DHT22;29884;47.450;19.124;2024-01-16T10:09:27;4.30;60.20
44215;DHT22;29884;47.450;19.124;2024-01-16T10:11:53;4.20;59.80
44215;DHT22;29884;47.450;19.124;2024-01-16T10:14:20;4.10;59.60
44215;DHT22;29884;47.450;19.124;2024-01-16T10:17:02;4.20;59.80
44215;DHT22;29884;47.450;19.124;2024-01-16T10:19:31;4.30;60.00
44215;DHT22;29884;47.450;19.124;2024-01-16T10:22:04;4.20;58.90
44215;DHT22;29884;47.450;19.124;2024-01-16T10:24:30;4.40;58.80
44215;DHT22;29884;47.450;19.124;2024-01-16T10:27:00;4.30;58.40
44215;DHT22;29884;47.450;19.124;2024-01-16T10:29:26;4.30;58.60
44215;DHT22;29884;47.450;19.124;2024-01-16T10:31:52;4.50;58.90
44215;DHT22;29884;47.450;19.124;2024-01-16T10:34:22;4.50;57.40
44215;DHT22;29884;47.450;19.124;2024-01-16T10:36:52;4.50;56.60
44215;DHT22;29884;47.450;19.124;2024-01-16T10:39:23;4.50;56.40
44215;DHT22;29884;47.450;19.124;2024-01-16T10:41:58;4.50;56.30
44215;DHT22;29884;47.450;19.124;2024-01-16T10:44:24;4.60;56.40
44215;DHT22;29884;47.450;19.124;2024-01-16T10:46:50;4.70;55.60
44215;DHT22;29884;47.450;19.124;2024-01-16T10:49:15;4.60;55.90
44215;DHT22;29884;47.450;19.124;2024-01-16T10:51:43;4.60;55.80
44215;DHT22;29884;47.450;19.124;2024-01-16T10:54:12;4.70;55.90
44215;DHT22;29884;47.450;19.124;2024-01-16T10:56:44;4.60;54.90
44215;DHT22;29884;47.450;19.124;2024-01-16T10:59:59;4.60;54.80
44215;DHT22;29884;47.450;19.124;2024-01-16T11:02:20;4.60;54.70
44215;DHT22;29884;47.450;19.124;2024-01-16T11:04:50;4.70;55.70
44215;DHT22;29884;47.450;19.124;2024-01-16T11:07:18;4.60;55.00
44215;DHT22;29884;47.450;19.124;2024-01-16T11:09:44;4.50;55.10
44215;DHT22;29884;47.450;19.124;2024-01-16T11:12:10;4.50;55.80
44215;DHT22;29884;47.450;19.124;2024-01-16T11:14:38;4.50;55.90
44215;DHT22;29884;47.450;19.124;2024-01-16T11:17:05;4.50;55.90
44215;DHT22;29884;47.450;19.124;2024-01-16T11:19:33;4.70;56.00
44215;DHT22;29884;47.450;19.124;2024-01-16T11:21:59;4.60;54.00
44215;DHT22;29884;47.450;19.124;2024-01-16T11:24:25;4.60;56.10
44215;DHT22;29884;47.450;19.124;2024-01-16T11:26:51;4.70;54.20
44215;DHT22;29884;47.450;19.124;2024-01-16T11:31:55;4.80;55.10
44215;DHT22;29884;47.450;19.124;2024-01-16T11:37:11;4.80;54.00
44215;DHT22;29884;47.450;19.124;2024-01-16T11:39:37;4.80;54.70
44215;DHT22;29884;47.450;19.124;2024-01-16T11:42:03;4.80;53.70
44215;DHT22;29884;47.450;19.124;2024-01-16T11:44:46;4.70;54.60
44215;DHT22;29884;47.450;19.124;2024-01-16T11:47:19;5.00;53.50
44215;DHT22;29884;47.450;19.124;2024-01-16T11:49:50;5.00;53.20
44215;DHT22;29884;47.450;19.124;2024-01-16T11:55:27;5.30;52.70
44215;DHT22;29884;47.450;19.124;2024-01-16T12:00:49;5.60;50.90
44215;DHT22;29884;47.450;19.124;2024-01-16T12:03:21;5.40;50.20
44215;DHT22;29884;47.450;19.124;2024-01-16T12:05:57;5.20;50.60
44215;DHT22;29884;47.450;19.124;2024-01-16T12:08:23;5.30;50.50
44215;DHT22;29884;47.450;19.124;2024-01-16T12:10:48;5.30;50.80
44215;DHT22;29884;47.450;19.124;2024-01-16T12:13:14;5.30;49.00
44215;DHT22;29884;47.450;19.124;2024-01-16T12:15:40;5.20;50.00
44215;DHT22;29884;47.450;19.124;2024-01-16T12:18:06;5.10;48.90
44215;DHT22;29884;47.450;19.124;2024-01-16T12:20:34;5.20;49.50
44215;DHT22;29884;47.450;19.124;2024-01-16T12:23:02;5.20;48.90
44215;DHT22;29884;47.450;19.124;2024-01-16T12:25:29;5.30;48.30
44215;DHT22;29884;47.450;19.124;2024-01-16T12:30:24;5.20;46.60
44215;DHT22;29884;47.450;19.124;2024-01-16T12:32:50;5.20;46.30
44215;DHT22;29884;47.450;19.124;2024-01-16T12:35:22;5.10;46.80
44215;DHT22;29884;47.450;19.124;2024-01-16T12:38:01;5.20;47.40
44215;DHT22;29884;47.450;19.124;2024-01-16T12:40:28;5.20;46.40
44215;DHT22;29884;47.450;19.124;2024-01-16T12:42:53;5.30;45.70
44215;DHT22;29884;47.450;19.124;2024-01-16T12:45:19;5.20;45.60
44215;DHT22;29884;47.450;19.124;2024-01-16T12:47:50;5.30;45.90
44215;DHT22;29884;47.450;19.124;2024-01-16T12:50:24;5.20;45.80
44215;DHT22;29884;47.450;19.124;2024-01-16T12:55:28;5.30;45.70
44215;DHT22;29884;47.450;19.124;2024-01-16T13:00:45;5.40;45.60
44215;DHT22;29884;47.450;19.124;2024-01-16T13:03:17;5.30;44.60
44215;DHT22;29884;47.450;19.124;2024-01-16T13:05:43;5.40;44.40
44215;DHT22;29884;47.450;19.124;2024-01-16T13:08:16;5.40;44.30
44215;DHT22;29884;47.450;19.124;2024-01-16T13:10:42;5.10;42.60
44215;DHT22;29884;47.450;19.124;2024-01-16T13:13:15;4.90;42.90
44215;DHT22;29884;47.450;19.124;2024-01-16T13:15:41;4.90;43.70
44215;DHT22;29884;47.450;19.124;2024-01-16T13:18:17;4.80;43.00
44215;DHT22;29884;47.450;19.124;2024-01-16T13:20:44;4.80;43.50
44215;DHT22;29884;47.450;19.124;2024-01-16T13:23:09;4.80;43.20
44215;DHT22;29884;47.450;19.124;2024-01-16T13:25:35;4.80;41.70
44215;DHT22;29884;47.450;19.124;2024-01-16T13:28:00;4.90;42.50
44215;DHT22;29884;47.450;19.124;2024-01-16T13:30:26;4.90;42.80
44215;DHT22;29884;47.450;19.124;2024-01-16T13:32:51;4.90;42.90
44215;DHT22;29884;47.450;19.124;2024-01-16T13:35:17;5.00;41.60
44215;DHT22;29884;47.450;19.124;2024-01-16T13:37:43;5.10;41.70
44215;DHT22;29884;47.450;19.124;2024-01-16T13:40:08;5.10;41.80
44215;DHT22;29884;47.450;19.124;2024-01-16T13:42:40;5.00;41.30
44215;DHT22;29884;47.450;19.124;2024-01-16T13:45:07;4.90;41.10
44215;DHT22;29884;47.450;19.124;2024-01-16T13:47:34;5.00;41.10
44215;DHT22;29884;47.450;19.124;2024-01-16T13:50:04;5.00;40.70
44215;DHT22;29884;47.450;19.124;2024-01-16T13:52:30;5.00;41.60
44215;DHT22;29884;47.450;19.124;2024-01-16T13:54:56;4.90;40.70
44215;DHT22;29884;47.450;19.124;2024-01-16T13:57:23;4.80;41.20
44215;DHT22;29884;47.450;19.124;2024-01-16T13:59:48;4.70;40.00
44215;DHT22;29884;47.450;19.124;2024-01-16T14:02:14;4.60;40.10
44215;DHT22;29884;47.450;19.124;2024-01-16T14:04:40;4.60;39.80
44215;DHT22;29884;47.450;19.124;2024-01-16T14:07:05;4.60;39.70
44215;DHT22;29884;47.450;19.124;2024-01-16T14:09:35;4.60;39.60
44215;DHT22;29884;47.450;19.124;2024-01-16T14:12:01;4.60;40.30
44215;DHT22;29884;47.450;19.124;2024-01-16T14:14:27;4.60;39.00
44215;DHT22;29884;47.450;19.124;2024-01-16T14:16:53;4.60;38.30
44215;DHT22;29884;47.450;19.124;2024-01-16T14:19:20;4.60;39.30
44215;DHT22;29884;47.450;19.124;2024-01-16T14:21:45;4.60;39.10
44215;DHT22;29884;47.450;19.124;2024-01-16T14:24:13;4.50;40.20
44215;DHT22;29884;47.450;19.124;2024-01-16T14:26:42;4.50;39.20
44215;DHT22;29884;47.450;19.124;2024-01-16T14:29:10;4.50;38.80
44215;DHT22;29884;47.450;19.124;2024-01-16T14:31:35;4.40;39.90
44215;DHT22;29884;47.450;19.124;2024-01-16T14:34:01;4.30;40.20
44215;DHT22;29884;47.450;19.124;2024-01-16T14:36:26;4.30;41.20
44215;DHT22;29884;47.450;19.124;2024-01-16T14:38:52;4.30;41.00
44215;DHT22;29884;47.450;19.124;2024-01-16T14:41:18;4.20;41.20
44215;DHT22;29884;47.450;19.124;2024-01-16T14:43:44;4.20;41.70
44215;DHT22;29884;47.450;19.124;2024-01-16T14:46:09;4.10;42.00
44215;DHT22;29884;47.450;19.124;2024-01-16T14:48:45;4.10;42.20
44215;DHT22;29884;47.450;19.124;2024-01-16T14:51:11;4.00;42.60
44215;DHT22;29884;47.450;19.124;2024-01-16T14:53:37;3.90;42.40
44215;DHT22;29884;47.450;19.124;2024-01-16T14:56:02;3.90;42.80
44215;DHT22;29884;47.450;19.124;2024-01-16T14:58:30;3.80;42.90
44215;DHT22;29884;47.450;19.124;2024-01-16T15:00:56;3.80;43.00
44215;DHT22;29884;47.450;19.124;2024-01-16T15:03:22;3.70;43.40
44215;DHT22;29884;47.450;19.124;2024-01-16T15:05:49;3.70;42.90
44215;DHT22;29884;47.450;19.124;2024-01-16T15:08:15;3.60;43.80
44215;DHT22;29884;47.450;19.124;2024-01-16T15:10:41;3.50;44.20
44215;DHT22;29884;47.450;19.124;2024-01-16T15:13:07;3.50;44.20
44215;DHT22;29884;47.450;19.124;2024-01-16T15:15:34;3.40;45.00
44215;DHT22;29884;47.450;19.124;2024-01-16T15:17:59;3.40;45.10
44215;DHT22;29884;47.450;19.124;2024-01-16T15:20:25;3.30;45.30
44215;DHT22;29884;47.450;19.124;2024-01-16T15:22:51;3.30;45.60
44215;DHT22;29884;47.450;19.124;2024-01-16T15:25:19;3.30;46.70
44215;DHT22;29884;47.450;19.124;2024-01-16T15:27:50;3.20;46.10
44215;DHT22;29884;47.450;19.124;2024-01-16T15:30:20;3.10;46.80
44215;DHT22;29884;47.450;19.124;2024-01-16T15:32:50;3.10;46.60
44215;DHT22;29884;47.450;19.124;2024-01-16T15:35:16;3.00;46.20
44215;DHT22;29884;47.450;19.124;2024-01-16T15:37:41;3.10;46.30
44215;DHT22;29884;47.450;19.124;2024-01-16T15:40:08;3.00;46.40
44215;DHT22;29884;47.450;19.124;2024-01-16T15:42:34;3.00;47.30
44215;DHT22;29884;47.450;19.124;2024-01-16T15:45:02;3.00;48.40